createdAt,value
2023-04-05T00:00:11.216Z,8.80
2023-04-05T00:03:18.583Z,7.82
2023-04-05T00:06:22.315Z,8.57
2023-04-05T00:09:25.042Z,8.70
2023-04-05T00:12:27.908Z,7.78
2023-04-05T00:15:31.471Z,9.40
2023-04-05T00:18:38.370Z,9.43
2023-04-05T00:21:41.748Z,8.88
2023-04-05T00:24:45.644Z,9.13
2023-04-05T00:27:48.498Z,11.23
2023-04-05T00:30:53.677Z,8.13
2023-04-05T00:33:57.873Z,10.23
2023-04-05T00:37:01.578Z,9.60
2023-04-05T00:40:05.556Z,9.00
2023-04-05T00:43:08.464Z,8.77
2023-04-05T00:46:11.561Z,9.80
2023-04-05T00:49:15.834Z,9.70
2023-04-05T00:52:19.566Z,9.67
2023-04-05T00:55:22.877Z,9.30
2023-04-05T00:58:25.776Z,10.95
2023-04-05T01:01:30.342Z,10.63
2023-04-05T01:04:37.891Z,10.00
2023-04-05T01:07:47.631Z,10.90
2023-04-05T01:10:59.899Z,11.55
2023-04-05T01:14:03.228Z,9.75
2023-04-05T01:17:09.705Z,11.30
2023-04-05T01:20:14.132Z,9.73
2023-04-05T01:23:37.777Z,9.03
2023-04-05T01:27:05.568Z,9.55
2023-04-05T01:30:16.828Z,8.63
2023-04-05T01:33:26.843Z,10.27
2023-04-05T01:36:41.135Z,9.27
2023-04-05T01:39:44.623Z,8.33
2023-04-05T01:42:47.324Z,9.25
2023-04-05T01:45:51.580Z,9.07
2023-04-05T01:48:54.413Z,9.60
2023-04-05T01:51:57.185Z,8.43
2023-04-05T01:55:00.031Z,9.07
2023-04-05T01:58:02.832Z,11.15
2023-04-05T02:01:07.166Z,7.28
2023-04-05T02:04:10.101Z,8.30
2023-04-05T02:07:12.819Z,8.60
2023-04-05T02:10:16.253Z,9.47
2023-04-05T02:13:18.909Z,10.55
2023-04-05T02:16:23.604Z,9.82
2023-04-05T02:19:26.463Z,8.32
2023-04-05T02:22:29.855Z,9.90
2023-04-05T02:25:32.584Z,8.03
2023-04-05T02:28:35.685Z,8.38
2023-04-05T02:31:40.013Z,7.72
2023-04-05T02:34:43.490Z,7.75
2023-04-05T02:37:46.455Z,7.87
2023-04-05T02:40:50.305Z,7.93
2023-04-05T02:43:54.190Z,8.23
2023-04-05T02:46:58.440Z,9.32
2023-04-05T02:50:01.409Z,8.57
2023-04-05T02:53:04.376Z,7.50
2023-04-05T02:56:07.831Z,7.93
2023-04-05T02:59:11.125Z,7.68
2023-04-05T03:02:16.118Z,7.15
2023-04-05T03:05:20.723Z,7.15
2023-04-05T03:08:24.087Z,8.80
2023-04-05T03:11:26.811Z,7.97
2023-04-05T03:14:29.834Z,7.25
2023-04-05T03:17:34.077Z,6.18
2023-04-05T03:20:40.013Z,6.60
2023-04-05T03:23:43.144Z,7.90
2023-04-05T03:26:48.039Z,9.90
2023-04-05T03:29:51.487Z,7.32
2023-04-05T03:32:57.214Z,6.55
2023-04-05T03:36:01.242Z,8.00
2023-04-05T03:39:04.962Z,7.63
2023-04-05T03:42:07.674Z,6.67
2023-04-05T03:45:11.132Z,7.22
2023-04-05T03:48:19.997Z,8.00
2023-04-05T03:51:22.731Z,6.63
2023-04-05T03:54:25.561Z,8.00
2023-04-05T03:57:29.483Z,5.83
2023-04-05T04:00:34.329Z,6.25
2023-04-05T04:03:39.108Z,7.65
2023-04-05T04:06:42.130Z,6.28
2023-04-05T04:09:44.972Z,6.30
2023-04-05T04:12:47.703Z,6.80
2023-04-05T04:15:50.792Z,6.10
2023-04-05T04:18:54.976Z,5.57
2023-04-05T04:21:59.226Z,8.00
2023-04-05T04:25:04.730Z,6.77
2023-04-05T04:28:07.951Z,5.60
2023-04-05T04:31:13.632Z,6.63
2023-04-05T04:34:18.504Z,7.63
2023-04-05T04:37:22.905Z,6.57
2023-04-05T04:40:29.271Z,6.63
2023-04-05T04:43:33.941Z,4.93
2023-04-05T04:46:43.011Z,6.90
2023-04-05T04:49:47.252Z,6.67
2023-04-05T04:52:49.985Z,6.07
2023-04-05T04:55:52.780Z,5.50
2023-04-05T04:58:56.682Z,6.93
2023-04-05T05:01:59.639Z,6.18
2023-04-05T05:05:04.417Z,6.10
2023-04-05T05:08:07.622Z,6.27
2023-04-05T05:11:11.025Z,5.25
2023-04-05T05:14:13.944Z,5.40
2023-04-05T05:17:16.769Z,5.68
2023-04-05T05:20:21.056Z,6.20
2023-04-05T05:23:24.004Z,5.93
2023-04-05T05:26:27.191Z,4.63
2023-04-05T05:29:30.369Z,6.70
2023-04-05T05:32:33.289Z,5.32
2023-04-05T05:35:38.137Z,6.73
2023-04-05T05:38:43.158Z,7.17
2023-04-05T05:41:46.367Z,7.15
2023-04-05T05:44:49.266Z,5.13
2023-04-05T05:47:52.383Z,5.20
2023-04-05T05:50:57.233Z,4.67
2023-04-05T05:54:00.403Z,5.53
2023-04-05T05:57:03.476Z,5.50
2023-04-05T06:00:09.657Z,5.97
2023-04-05T06:03:13.503Z,4.68
2023-04-05T06:06:17.881Z,4.97
2023-04-05T06:09:21.686Z,7.00
2023-04-05T06:12:24.814Z,7.13
2023-04-05T06:15:28.397Z,5.28
2023-04-05T06:18:31.617Z,5.15
2023-04-05T06:21:35.736Z,5.83
2023-04-05T06:24:38.637Z,6.73
2023-04-05T06:27:41.392Z,5.80
2023-04-05T06:30:45.090Z,6.43
2023-04-05T06:33:48.360Z,6.15
2023-04-05T06:36:52.771Z,5.50
2023-04-05T06:39:55.744Z,8.40
2023-04-05T06:42:58.483Z,7.10
2023-04-05T06:46:01.908Z,6.57
2023-04-05T06:49:04.833Z,6.07
2023-04-05T06:52:08.889Z,5.28
2023-04-05T06:55:11.783Z,6.05
2023-04-05T06:58:14.505Z,7.37
2023-04-05T07:01:17.742Z,7.55
2023-04-05T07:04:20.817Z,8.50
2023-04-05T07:07:24.874Z,6.72
2023-04-05T07:10:27.774Z,6.07
2023-04-05T07:13:30.733Z,6.63
2023-04-05T07:16:34.009Z,6.63
2023-04-05T07:19:36.912Z,6.68
2023-04-05T07:22:41.321Z,6.68
2023-04-05T07:25:44.117Z,5.95
2023-04-05T07:28:46.861Z,4.63
2023-04-05T07:31:50.013Z,5.53
2023-04-05T07:34:53.021Z,6.75
2023-04-05T07:37:57.128Z,5.43
2023-04-05T07:40:59.981Z,6.65
2023-04-05T07:44:02.693Z,8.07
2023-04-05T07:47:05.591Z,5.93
2023-04-05T07:50:09.995Z,8.32
2023-04-05T07:53:14.455Z,6.85
2023-04-05T07:56:17.428Z,8.60
2023-04-05T07:59:20.522Z,7.80
2023-04-05T08:02:23.390Z,7.30
2023-04-05T08:05:26.497Z,8.88
2023-04-05T08:08:31.945Z,8.13
2023-04-05T08:11:35.062Z,7.30
2023-04-05T08:14:37.770Z,9.40
2023-04-05T08:17:40.680Z,7.38
2023-04-05T08:20:43.727Z,7.38
2023-04-05T08:23:49.265Z,6.82
2023-04-05T08:26:52.069Z,7.65
2023-04-05T08:29:54.755Z,7.23
2023-04-05T08:32:57.486Z,7.95
2023-04-05T08:36:05.405Z,8.52
2023-04-05T08:39:10.857Z,8.30
2023-04-05T08:42:18.001Z,7.60
2023-04-05T08:45:21.970Z,8.90
2023-04-05T08:48:25.095Z,13.50
2023-04-05T08:51:28.159Z,9.00
2023-04-05T08:54:32.745Z,9.45
2023-04-05T08:57:39.047Z,8.60
2023-04-05T09:00:42.944Z,8.07
2023-04-05T09:03:46.949Z,8.82
2023-04-05T09:06:51.776Z,7.43
2023-04-05T09:09:59.428Z,8.32
2023-04-05T09:13:03.442Z,8.90
2023-04-05T09:16:06.825Z,8.23
2023-04-05T09:19:11.276Z,8.98
2023-04-05T09:22:18.389Z,8.50
2023-04-05T09:25:39.807Z,10.60
2023-04-05T09:28:43.933Z,11.25
2023-04-05T09:31:46.792Z,7.73
2023-04-05T09:34:53.308Z,6.95
2023-04-05T09:37:58.251Z,8.75
2023-04-05T09:41:10.297Z,7.32
2023-04-05T09:44:13.166Z,7.82
2023-04-05T09:47:20.498Z,7.53
2023-04-05T09:50:23.636Z,9.02
2023-04-05T09:53:26.358Z,8.30
2023-04-05T09:56:32.959Z,9.55
2023-04-05T09:59:36.245Z,6.63
2023-04-05T10:02:40.796Z,8.43
2023-04-05T10:05:45.778Z,7.78
2023-04-05T10:08:48.804Z,8.80
2023-04-05T10:11:53.160Z,8.02
2023-04-05T10:14:57.508Z,7.57
2023-04-05T10:18:09.489Z,7.97
2023-04-05T10:21:16.114Z,8.38
2023-04-05T10:24:33.214Z,7.85
2023-04-05T10:27:47.505Z,7.65
2023-04-05T10:30:58.537Z,6.78
2023-04-05T10:34:05.774Z,7.40
2023-04-05T10:37:12.184Z,8.55
2023-04-05T10:40:18.495Z,7.10
2023-04-05T10:43:26.820Z,9.15
2023-04-05T10:46:31.402Z,8.15
2023-04-05T10:49:38.302Z,7.73
2023-04-05T10:52:42.709Z,6.88
2023-04-05T10:55:47.459Z,7.30
2023-04-05T10:58:54.174Z,6.80
2023-04-05T11:01:59.382Z,8.45
2023-04-05T11:05:05.256Z,7.10
2023-04-05T11:08:09.479Z,7.35
2023-04-05T11:11:13.894Z,8.18
2023-04-05T11:14:23.629Z,7.07
2023-04-05T11:17:28.021Z,10.60
2023-04-05T11:20:43.511Z,8.10
2023-04-05T11:24:03.083Z,7.32
2023-04-05T11:27:11.248Z,6.60
2023-04-05T11:30:36.399Z,8.35
2023-04-05T11:33:56.968Z,8.00
2023-04-05T11:37:01.083Z,6.70
2023-04-05T11:40:29.138Z,6.85
2023-04-05T11:43:34.566Z,7.72
2023-04-05T11:46:40.230Z,7.28
2023-04-05T11:49:43.378Z,7.38
2023-04-05T11:52:46.474Z,7.03
2023-04-05T11:55:52.498Z,5.75
2023-04-05T11:58:59.658Z,8.30
2023-04-05T12:02:07.769Z,5.90
2023-04-05T12:05:12.345Z,7.75
2023-04-05T12:08:15.538Z,6.87
2023-04-05T12:11:27.168Z,6.85
2023-04-05T12:14:29.906Z,8.55
2023-04-05T12:17:46.609Z,6.95
2023-04-05T12:20:49.413Z,10.02
2023-04-05T12:23:53.078Z,7.30
2023-04-05T12:26:58.588Z,6.68
2023-04-05T12:30:15.895Z,5.82
2023-04-05T12:33:29.485Z,7.35
2023-04-05T12:36:32.813Z,6.70
2023-04-05T12:39:36.704Z,7.33
2023-04-05T12:42:40.956Z,7.03
2023-04-05T12:45:44.455Z,7.93
2023-04-05T12:48:53.447Z,6.90
2023-04-05T12:52:04.241Z,7.63
2023-04-05T12:55:16.759Z,6.23
2023-04-05T12:58:20.839Z,7.05
2023-04-05T13:01:23.588Z,8.10
2023-04-05T13:04:28.724Z,6.22
2023-04-05T13:07:31.459Z,6.80
2023-04-05T13:10:34.429Z,7.03
2023-04-05T13:13:37.323Z,7.05
2023-04-05T13:16:40.103Z,9.40
2023-04-05T13:19:44.703Z,6.63
2023-04-05T13:22:47.854Z,6.03
2023-04-05T13:25:50.905Z,6.67
2023-04-05T13:28:53.760Z,7.05
2023-04-05T13:31:56.576Z,7.60
2023-04-05T13:35:02.803Z,7.43
2023-04-05T13:38:05.812Z,7.07
2023-04-05T13:41:09.234Z,5.87
2023-04-05T13:44:12.341Z,8.00
2023-04-05T13:47:16.777Z,8.63
2023-04-05T13:50:21.171Z,7.10
2023-04-05T13:53:24.896Z,7.07
2023-04-05T13:56:28.611Z,7.33
2023-04-05T13:59:31.697Z,4.85
2023-04-05T14:02:34.986Z,7.30
2023-04-05T14:05:41.621Z,5.93
2023-04-05T14:08:44.752Z,5.88
2023-04-05T14:11:47.461Z,6.53
2023-04-05T14:14:51.452Z,5.22
2023-04-05T14:17:56.226Z,6.20
2023-04-05T14:21:01.098Z,7.57
2023-04-05T14:24:04.241Z,7.25
2023-04-05T14:27:08.577Z,7.33
2023-04-05T14:30:12.455Z,7.03
2023-04-05T14:33:16.384Z,8.02
2023-04-05T14:36:20.812Z,7.00
2023-04-05T14:39:23.797Z,5.90
2023-04-05T14:42:37.302Z,6.27
2023-04-05T14:45:44.512Z,5.93
2023-04-05T14:48:47.838Z,9.48
2023-04-05T14:51:52.884Z,6.45
2023-04-05T14:54:55.945Z,5.82
2023-04-05T14:57:58.886Z,7.77
2023-04-05T15:01:01.983Z,7.32
2023-04-05T15:04:07.493Z,6.95
2023-04-05T15:07:13.829Z,6.82
2023-04-05T15:10:18.583Z,6.90
2023-04-05T15:13:22.072Z,8.90
2023-04-05T15:16:26.116Z,7.28
2023-04-05T15:19:30.463Z,9.18
2023-04-05T15:22:36.103Z,7.28
2023-04-05T15:25:39.040Z,6.82
2023-04-05T15:28:42.590Z,6.57
2023-04-05T15:31:47.665Z,6.40
2023-04-05T15:34:50.814Z,7.03
2023-04-05T15:37:55.120Z,6.85
2023-04-05T15:41:00.268Z,9.07
2023-04-05T15:44:03.747Z,7.13
2023-04-05T15:47:11.009Z,6.22
2023-04-05T15:50:14.141Z,6.78
2023-04-05T15:53:19.165Z,5.57
2023-04-05T15:56:22.181Z,7.38
2023-04-05T15:59:27.704Z,10.40
2023-04-05T16:02:31.511Z,7.95
2023-04-05T16:05:34.560Z,6.57
2023-04-05T16:08:38.819Z,5.38
2023-04-05T16:11:42.156Z,5.32
2023-04-05T16:14:45.495Z,6.63
2023-04-05T16:17:48.842Z,6.95
2023-04-05T16:20:52.758Z,7.43
2023-04-05T16:24:01.285Z,5.57
2023-04-05T16:27:04.609Z,6.80
2023-04-05T16:30:09.109Z,6.20
2023-04-05T16:33:15.200Z,5.75
2023-04-05T16:36:18.377Z,6.18
2023-04-05T16:39:22.840Z,7.72
2023-04-05T16:42:27.311Z,6.82
2023-04-05T16:45:33.748Z,5.63
2023-04-05T16:48:36.719Z,5.72
2023-04-05T16:51:40.219Z,5.35
2023-04-05T16:54:49.327Z,5.75
2023-04-05T16:57:54.118Z,5.47
2023-04-05T17:00:58.981Z,5.97
2023-04-05T17:04:01.953Z,6.13
2023-04-05T17:07:04.876Z,6.85
2023-04-05T17:10:10.621Z,6.78
2023-04-05T17:13:15.429Z,5.07
2023-04-05T17:16:18.682Z,7.00
2023-04-05T17:19:24.867Z,5.55
2023-04-05T17:22:27.946Z,6.78
2023-04-05T17:25:32.459Z,6.10
2023-04-05T17:28:35.783Z,7.63
2023-04-05T17:31:38.792Z,6.90
2023-04-05T17:34:42.395Z,5.93
2023-04-05T17:37:47.766Z,5.75
2023-04-05T17:40:52.947Z,7.53
2023-04-05T17:43:56.042Z,6.43
2023-04-05T17:47:08.373Z,6.70
2023-04-05T17:50:12.816Z,6.22
2023-04-05T17:53:16.794Z,7.10
2023-04-05T17:56:22.128Z,7.03
2023-04-05T17:59:25.108Z,7.22
2023-04-05T18:02:28.556Z,7.53
2023-04-05T18:05:31.511Z,7.00
2023-04-05T18:08:34.571Z,7.65
2023-04-05T18:11:38.920Z,6.28
2023-04-05T18:14:41.752Z,7.13
2023-04-05T18:17:45.717Z,6.30
2023-04-05T18:20:50.619Z,8.48
2023-04-05T18:23:54.116Z,6.93
2023-04-05T18:26:58.471Z,7.82
2023-04-05T18:30:01.671Z,8.40
2023-04-05T18:33:05.180Z,8.67
2023-04-05T18:36:08.956Z,7.65
2023-04-05T18:39:12.068Z,7.03
2023-04-05T18:42:17.692Z,8.25
2023-04-05T18:45:20.788Z,8.47
2023-04-05T18:48:25.189Z,9.25
2023-04-05T18:51:29.516Z,9.15
2023-04-05T18:54:32.484Z,7.30
2023-04-05T18:57:38.645Z,7.20
2023-04-05T19:00:41.796Z,8.10
2023-04-05T19:03:46.166Z,9.27
2023-04-05T19:06:49.291Z,6.47
2023-04-05T19:09:52.325Z,9.73
2023-04-05T19:12:56.738Z,8.30
2023-04-05T19:16:00.277Z,7.30
2023-04-05T19:19:07.345Z,7.28
2023-04-05T19:22:11.172Z,6.68
2023-04-05T19:25:14.273Z,7.85
2023-04-05T19:28:18.532Z,8.10
2023-04-05T19:31:23.231Z,10.07
2023-04-05T19:34:26.466Z,9.65
2023-04-05T19:37:30.881Z,9.98
2023-04-05T19:40:33.898Z,8.25
2023-04-05T19:43:41.032Z,8.60
2023-04-05T19:46:44.264Z,6.50
2023-04-05T19:49:49.753Z,7.93
2023-04-05T19:52:52.591Z,9.93
2023-04-05T19:55:56.054Z,8.73
2023-04-05T19:59:02.857Z,8.20
2023-04-05T20:02:32.773Z,9.83
2023-04-05T20:05:58.596Z,8.63
2023-04-05T20:09:07.473Z,8.43
2023-04-05T20:12:13.395Z,9.18
2023-04-05T20:15:35.775Z,7.20
2023-04-05T20:18:38.896Z,7.90
2023-04-05T20:21:43.470Z,8.50
2023-04-05T20:24:46.873Z,8.35
2023-04-05T20:27:49.778Z,7.57
2023-04-05T20:30:55.017Z,8.37
2023-04-05T20:33:59.366Z,8.77
2023-04-05T20:37:04.123Z,7.85
2023-04-05T20:40:08.429Z,9.13
2023-04-05T20:43:11.687Z,7.78
2023-04-05T20:46:17.259Z,7.00
2023-04-05T20:49:20.165Z,6.97
2023-04-05T20:52:23.293Z,7.57
2023-04-05T20:55:26.951Z,6.40
2023-04-05T20:58:29.966Z,7.22
2023-04-05T21:01:36.084Z,6.80
2023-04-05T21:04:39.020Z,7.40
2023-04-05T21:07:42.756Z,7.97
2023-04-05T21:10:45.795Z,6.50
2023-04-05T21:13:48.930Z,7.43
2023-04-05T21:16:53.147Z,7.77
2023-04-05T21:19:56.223Z,7.10
2023-04-05T21:23:00.752Z,8.55
2023-04-05T21:26:05.850Z,7.78
2023-04-05T21:29:08.850Z,7.70
2023-04-05T21:32:13.389Z,7.60
2023-04-05T21:35:16.248Z,7.03
2023-04-05T21:38:19.675Z,7.35
2023-04-05T21:41:22.599Z,7.35
2023-04-05T21:44:27.094Z,7.97
2023-04-05T21:47:31.670Z,9.63
2023-04-05T21:50:36.705Z,7.83
2023-04-05T21:53:40.653Z,8.95
2023-04-05T21:56:43.491Z,9.63
2023-04-05T21:59:46.917Z,9.02
2023-04-05T22:02:51.634Z,9.30
2023-04-05T22:05:55.864Z,8.67
2023-04-05T22:08:58.759Z,8.95
2023-04-05T22:12:03.103Z,10.93
2023-04-05T22:15:08.227Z,8.40
2023-04-05T22:18:12.662Z,8.55
2023-04-05T22:21:16.358Z,8.68
2023-04-05T22:24:19.654Z,10.57
2023-04-05T22:27:22.680Z,10.50
2023-04-05T22:30:28.029Z,11.25
2023-04-05T22:33:33.228Z,8.57
2023-04-05T22:36:36.262Z,8.95
2023-04-05T22:39:39.344Z,8.93
2023-04-05T22:42:43.162Z,9.80
2023-04-05T22:45:49.770Z,7.95
2023-04-05T22:48:55.136Z,9.35
2023-04-05T22:51:58.383Z,9.68
2023-04-05T22:55:02.719Z,8.80
2023-04-05T22:58:06.068Z,7.95
2023-04-05T23:01:09.365Z,9.90
2023-04-05T23:04:14.007Z,8.98
2023-04-05T23:07:17.166Z,8.13
2023-04-05T23:10:22.327Z,8.70
2023-04-05T23:13:25.526Z,8.18
2023-04-05T23:16:28.579Z,8.00
2023-04-05T23:19:33.049Z,8.98
2023-04-05T23:22:36.899Z,9.40
2023-04-05T23:25:39.730Z,8.80
2023-04-05T23:28:42.969Z,9.68
2023-04-05T23:31:46.042Z,8.63
2023-04-05T23:34:51.011Z,9.02
2023-04-05T23:37:54.747Z,8.70
2023-04-05T23:40:57.917Z,8.43
2023-04-05T23:44:01.114Z,9.13
2023-04-05T23:47:04.511Z,9.63
2023-04-05T23:50:11.176Z,9.93
2023-04-05T23:53:15.090Z,9.75
2023-04-05T23:56:17.911Z,7.63
2023-04-05T23:59:20.975Z,8.20
